2MARLP EGJB-EGJJ

Flight info

Callsign 2MARLP
Flight time 0h 6m
Altitude 9000
Route JSY/N0283F080
Aircraft C750/M-SBDE3FGHRWXY/S

Departure

Time 2026-04-21 20:06
Airport Guernsey Airport (EGJB)

Arrival

Time 2026-04-21 20:12
Airport Jersey Airport (EGJJ)
Time Latitude Longitude Altitude Speed Heading
2026-04-21 20:01 49.43352 -2.59064 341 ft 0 kts 317°
2026-04-21 20:03 49.43355 -2.59070 339 ft 4 kts 306°
2026-04-21 20:03 49.43371 -2.59224 341 ft 25 kts 272°
2026-04-21 20:04 49.43363 -2.59599 341 ft 40 kts 269°
2026-04-21 20:04 49.43340 -2.59999 341 ft 36 kts 269°
2026-04-21 20:04 49.43327 -2.60392 331 ft 38 kts 268°
2026-04-21 20:04 49.43349 -2.60797 322 ft 39 kts 279°
2026-04-21 20:05 49.43360 -2.61187 313 ft 30 kts 270°
2026-04-21 20:05 49.43402 -2.61323 310 ft 14 kts 313°
2026-04-21 20:05 49.43464 -2.61319 310 ft 9 kts 78°
2026-04-21 20:05 49.43484 -2.60700 324 ft 110 kts 87°
2026-04-21 20:06 49.43503 -2.59565 1109 ft 96 kts 87°
2026-04-21 20:06 49.43500 -2.58517 1837 ft 109 kts 91°
2026-04-21 20:06 49.43475 -2.57182 2263 ft 141 kts 91°
2026-04-21 20:06 49.43266 -2.55537 2775 ft 173 kts 108°
2026-04-21 20:07 49.42732 -2.53778 3581 ft 191 kts 112°
2026-04-21 20:07 49.42166 -2.51829 4402 ft 209 kts 111°
2026-04-21 20:07 49.41571 -2.49701 5237 ft 225 kts 111°
2026-04-21 20:07 49.40604 -2.47722 6166 ft 234 kts 133°
2026-04-21 20:08 49.39386 -2.46178 7638 ft 220 kts 137°
2026-04-21 20:08 49.38256 -2.44751 9067 ft 205 kts 137°
2026-04-21 20:08 49.37210 -2.43383 10336 ft 195 kts 137°
2026-04-21 20:08 49.36126 -2.42026 10952 ft 212 kts 142°
2026-04-21 20:09 49.34811 -2.40567 11000 ft 257 kts 143°
2026-04-21 20:09 49.33237 -2.38824 11023 ft 299 kts 143°
2026-04-21 20:09 49.31445 -2.36830 11029 ft 337 kts 143°
2026-04-21 20:09 49.29519 -2.34685 10996 ft 332 kts 143°
2026-04-21 20:10 49.27775 -2.32768 9705 ft 291 kts 144°
2026-04-21 20:10 49.26079 -2.31279 7712 ft 272 kts 149°
2026-04-21 20:10 49.24420 -2.30072 5834 ft 256 kts 151°
2026-04-21 20:10 49.22837 -2.29033 3989 ft 240 kts 152°
2026-04-21 20:11 49.21342 -2.28113 2326 ft 211 kts 142°
2026-04-21 20:11 49.20870 -2.26615 1804 ft 148 kts 99°
2026-04-21 20:11 49.20655 -2.25111 1410 ft 140 kts 98°
2026-04-21 20:11 49.20548 -2.23662 971 ft 136 kts 87°
2026-04-21 20:12 49.20597 -2.22227 576 ft 134 kts 83°
2026-04-21 20:12 49.20691 -2.20896 364 ft 117 kts 81°
2026-04-21 20:12 49.20747 -2.20159 279 ft 91 kts 80°
2026-04-21 20:12 49.20732 -2.19623 277 ft 20 kts 183°
2026-04-21 20:13 49.20619 -2.19713 277 ft 17 kts 251°
2026-04-21 20:13 49.20601 -2.19893 277 ft 20 kts 252°
2026-04-21 20:13 49.20458 -2.19912 277 ft 25 kts 156°
2026-04-21 20:13 49.20442 -2.19724 277 ft 17 kts 85°
2026-04-21 20:14 49.20417 -2.19511 277 ft 22 kts 105°
2026-04-21 20:14 49.20403 -2.19343 271 ft 8 kts 84°
2026-04-21 20:14 49.20399 -2.19225 270 ft 7 kts 152°
2026-04-21 20:14 49.20373 -2.19242 275 ft 9 kts 233°
2026-04-21 20:15 49.20359 -2.19282 275 ft 1 kts 130°
2026-04-21 20:15 49.20360 -2.19268 275 ft 0 kts 88°